createdAt,value
2022-09-20T00:01:25.830Z,18.17
2022-09-20T00:03:55.284Z,8.80
2022-09-20T00:06:25.344Z,13.98
2022-09-20T00:08:53.021Z,10.63
2022-09-20T00:11:22.403Z,16.30
2022-09-20T00:13:50.763Z,9.73
2022-09-20T00:16:21.747Z,7.85
2022-09-20T00:18:49.945Z,12.55
2022-09-20T00:21:18.162Z,10.65
2022-09-20T00:23:46.134Z,16.38
2022-09-20T00:26:14.820Z,11.45
2022-09-20T00:28:43.646Z,12.30
2022-09-20T00:31:12.071Z,10.50
2022-09-20T00:33:58.909Z,14.50
2022-09-20T00:36:27.299Z,10.57
2022-09-20T00:38:56.082Z,15.48
2022-09-20T00:41:23.735Z,11.82
2022-09-20T00:43:51.520Z,12.90
2022-09-20T00:46:22.361Z,9.98
2022-09-20T00:48:52.362Z,9.40
2022-09-20T00:51:24.237Z,12.77
2022-09-20T00:53:52.827Z,11.27
2022-09-20T00:56:22.334Z,10.05
2022-09-20T00:58:52.136Z,12.80
2022-09-20T01:01:20.079Z,9.20
2022-09-20T01:03:48.178Z,11.38
2022-09-20T01:06:18.021Z,10.80
2022-09-20T01:08:47.766Z,10.23
2022-09-20T01:11:15.467Z,14.30
2022-09-20T01:13:43.165Z,12.43
2022-09-20T01:16:12.241Z,14.43
2022-09-20T01:18:40.608Z,15.55
2022-09-20T01:21:09.083Z,14.38
2022-09-20T01:23:42.227Z,14.77
2022-09-20T01:26:33.925Z,16.23
2022-09-20T01:29:08.477Z,17.50
2022-09-20T01:31:37.481Z,18.85
2022-09-20T01:34:09.644Z,21.30
2022-09-20T01:36:40.182Z,19.77
2022-09-20T01:39:10.197Z,20.23
2022-09-20T01:41:41.678Z,16.55
2022-09-20T01:44:14.648Z,18.98
2022-09-20T01:46:43.957Z,18.08
2022-09-20T01:49:17.264Z,16.83
2022-09-20T01:51:59.764Z,15.73
2022-09-20T01:54:42.350Z,18.52
2022-09-20T01:57:29.925Z,15.00
2022-09-20T02:00:06.713Z,16.85
2022-09-20T02:02:42.918Z,16.48
2022-09-20T02:05:28.452Z,15.65
2022-09-20T02:08:09.216Z,16.58
2022-09-20T02:10:48.570Z,15.73
2022-09-20T02:13:28.303Z,22.42
2022-09-20T02:16:14.570Z,17.60
2022-09-20T02:18:48.915Z,22.30
2022-09-20T02:23:48.337Z,14.40
2022-09-20T02:26:25.856Z,17.08
2022-09-20T02:28:55.946Z,17.05
2022-09-20T02:31:28.903Z,18.42
2022-09-20T02:34:03.250Z,19.38
2022-09-20T02:39:01.319Z,12.13
2022-09-20T02:41:43.887Z,17.58
2022-09-20T02:44:16.594Z,14.90
2022-09-20T02:46:49.032Z,17.83
2022-09-20T02:49:21.958Z,22.33
2022-09-20T02:51:53.134Z,15.50
2022-09-20T02:54:27.540Z,18.08
2022-09-20T02:56:57.527Z,17.20
2022-09-20T02:59:29.129Z,21.38
2022-09-20T03:02:02.385Z,15.73
2022-09-20T03:04:35.934Z,22.80
2022-09-20T03:07:06.179Z,23.33
2022-09-20T03:09:36.034Z,18.52
2022-09-20T03:12:13.981Z,20.23
2022-09-20T03:14:46.364Z,20.98
2022-09-20T03:17:19.555Z,14.35
2022-09-20T03:19:54.802Z,19.10
2022-09-20T03:22:28.057Z,20.55
2022-09-20T03:25:02.262Z,19.98
2022-09-20T03:27:32.878Z,17.65
2022-09-20T03:30:08.789Z,16.27
2022-09-20T03:32:45.968Z,12.80
2022-09-20T03:35:23.781Z,19.13
2022-09-20T03:37:59.540Z,19.42
2022-09-20T03:40:46.367Z,19.52
2022-09-20T03:43:19.262Z,19.33
2022-09-20T03:45:54.671Z,19.30
2022-09-20T03:48:34.874Z,16.30
2022-09-20T03:51:11.097Z,15.05
2022-09-20T03:54:04.102Z,13.85
2022-09-20T03:56:55.637Z,13.60
2022-09-20T03:59:31.192Z,20.67
2022-09-20T04:02:09.491Z,15.35
2022-09-20T04:04:41.227Z,17.52
2022-09-20T04:07:16.960Z,13.27
2022-09-20T04:09:52.280Z,11.95
2022-09-20T04:12:24.984Z,16.70
2022-09-20T04:14:55.755Z,13.30
2022-09-20T04:17:32.382Z,8.13
2022-09-20T04:20:02.820Z,11.68
2022-09-20T04:22:32.193Z,6.90
2022-09-20T04:25:03.849Z,7.70
2022-09-20T04:27:35.551Z,8.68
2022-09-20T04:30:05.471Z,7.28
2022-09-20T04:32:36.666Z,6.03
2022-09-20T04:35:32.490Z,5.45
2022-09-20T04:38:04.890Z,4.30
2022-09-20T04:40:39.354Z,4.68
2022-09-20T04:43:22.071Z,7.45
2022-09-20T04:46:01.805Z,6.70
2022-09-20T04:48:59.845Z,9.23
2022-09-20T04:51:37.062Z,6.30
2022-09-20T04:54:35.320Z,10.63
2022-09-20T04:57:22.427Z,4.93
2022-09-20T04:59:56.623Z,5.32
2022-09-20T05:02:42.265Z,10.70
2022-09-20T05:05:35.886Z,6.32
2022-09-20T05:08:22.072Z,6.88
2022-09-20T05:11:02.719Z,7.20
2022-09-20T05:13:35.320Z,6.07
2022-09-20T05:16:07.415Z,5.78
2022-09-20T05:18:51.249Z,6.55
2022-09-20T05:21:35.955Z,6.83
2022-09-20T05:26:38.801Z,4.72
2022-09-20T05:29:11.819Z,6.10
2022-09-20T05:31:42.499Z,5.00
2022-09-20T05:34:16.553Z,8.05
2022-09-20T05:36:49.907Z,5.60
2022-09-20T05:39:23.626Z,8.07
2022-09-20T05:41:55.380Z,5.65
2022-09-20T05:44:28.835Z,5.93
2022-09-20T05:47:00.314Z,5.67
2022-09-20T05:49:37.597Z,8.60
2022-09-20T05:52:09.579Z,6.13
2022-09-20T05:54:52.122Z,8.43
2022-09-20T05:57:30.808Z,7.30
2022-09-20T06:00:02.967Z,8.20
2022-09-20T06:02:36.343Z,9.15
2022-09-20T06:05:06.865Z,8.73
2022-09-20T06:07:41.877Z,9.90
2022-09-20T06:10:33.436Z,6.68
2022-09-20T06:13:09.376Z,6.05
2022-09-20T06:15:38.939Z,5.75
2022-09-20T06:18:12.102Z,15.45
2022-09-20T06:20:44.628Z,6.75
2022-09-20T06:23:12.467Z,5.25
2022-09-20T06:25:44.817Z,3.88
2022-09-20T06:28:16.557Z,8.30
2022-09-20T06:30:46.154Z,6.32
2022-09-20T06:33:15.706Z,4.82
2022-09-20T06:35:46.586Z,6.03
2022-09-20T06:38:41.175Z,6.90
2022-09-20T06:41:30.682Z,12.52
2022-09-20T06:44:00.631Z,10.73
2022-09-20T06:46:36.873Z,5.60
2022-09-20T06:49:09.762Z,7.50
2022-09-20T06:51:39.203Z,7.80
2022-09-20T06:54:09.295Z,7.28
2022-09-20T06:56:38.532Z,5.90
2022-09-20T06:59:11.282Z,6.20
2022-09-20T07:01:46.784Z,7.00
2022-09-20T07:04:14.525Z,6.88
2022-09-20T07:06:44.749Z,5.70
2022-09-20T07:09:15.671Z,5.05
2022-09-20T07:11:43.894Z,7.38
2022-09-20T07:14:13.015Z,8.77
2022-09-20T07:16:40.761Z,6.95
2022-09-20T07:19:08.614Z,6.93
2022-09-20T07:21:36.558Z,7.45
2022-09-20T07:24:04.579Z,15.10
2022-09-20T07:26:32.706Z,12.07
2022-09-20T07:29:00.795Z,6.03
2022-09-20T07:31:30.746Z,6.13
2022-09-20T07:34:04.515Z,5.30
2022-09-20T07:36:32.150Z,9.02
2022-09-20T07:39:00.349Z,8.13
2022-09-20T07:41:30.538Z,7.13
2022-09-20T07:44:18.638Z,5.47
2022-09-20T07:46:48.675Z,6.70
2022-09-20T07:49:16.752Z,10.13
2022-09-20T07:51:44.644Z,8.48
2022-09-20T07:54:15.511Z,6.93
2022-09-20T07:56:43.437Z,5.30
2022-09-20T07:59:11.383Z,7.03
2022-09-20T08:01:39.287Z,6.60
2022-09-20T08:04:08.577Z,8.43
2022-09-20T08:06:38.129Z,5.05
2022-09-20T08:09:10.727Z,6.13
2022-09-20T08:11:39.695Z,9.48
2022-09-20T08:14:08.804Z,5.75
2022-09-20T08:16:39.135Z,5.47
2022-09-20T08:19:10.492Z,6.82
2022-09-20T08:21:40.180Z,6.00
2022-09-20T08:24:08.077Z,3.97
2022-09-20T08:26:40.745Z,4.75
2022-09-20T08:29:08.538Z,6.03
2022-09-20T08:31:38.059Z,7.03
2022-09-20T08:34:06.863Z,8.57
2022-09-20T08:36:37.251Z,6.25
2022-09-20T08:41:56.847Z,7.57
2022-09-20T08:44:27.766Z,5.43
2022-09-20T08:47:04.476Z,6.80
2022-09-20T08:49:32.419Z,6.45
2022-09-20T08:52:02.724Z,7.53
2022-09-20T08:54:32.739Z,5.00
2022-09-20T08:57:05.172Z,7.78
2022-09-20T08:59:36.114Z,5.13
2022-09-20T09:02:03.781Z,8.45
2022-09-20T09:04:35.381Z,8.18
2022-09-20T09:07:04.767Z,5.85
2022-09-20T09:09:42.402Z,7.13
2022-09-20T09:12:17.213Z,6.68
2022-09-20T09:14:54.947Z,6.72
2022-09-20T09:17:27.479Z,9.20
2022-09-20T09:19:56.324Z,6.07
2022-09-20T09:22:27.428Z,8.65
2022-09-20T09:25:10.875Z,7.18
2022-09-20T09:27:52.640Z,5.88
2022-09-20T09:30:21.978Z,6.97
2022-09-20T09:32:50.077Z,5.40
2022-09-20T09:35:24.816Z,5.60
2022-09-20T09:37:57.490Z,9.13
2022-09-20T09:40:25.747Z,6.07
2022-09-20T09:42:54.670Z,6.15
2022-09-20T09:45:27.938Z,9.25
2022-09-20T09:47:58.487Z,5.53
2022-09-20T09:50:27.616Z,6.15
2022-09-20T09:53:05.675Z,6.65
2022-09-20T09:55:43.524Z,7.85
2022-09-20T09:58:14.488Z,9.98
2022-09-20T10:00:46.665Z,11.30
2022-09-20T10:03:29.915Z,4.47
2022-09-20T10:06:06.931Z,10.95
2022-09-20T10:08:41.100Z,10.65
2022-09-20T10:11:15.154Z,7.82
2022-09-20T10:13:48.722Z,9.63
2022-09-20T10:16:21.123Z,8.52
2022-09-20T10:18:56.939Z,6.57
2022-09-20T10:21:28.789Z,6.57
2022-09-20T10:24:07.963Z,13.73
2022-09-20T10:26:44.230Z,15.10
2022-09-20T10:29:17.981Z,11.27
2022-09-20T10:31:50.043Z,7.03
2022-09-20T10:34:29.006Z,6.43
2022-09-20T10:36:58.184Z,6.68
2022-09-20T10:39:31.035Z,4.03
2022-09-20T10:42:23.207Z,2.17
2022-09-20T10:44:57.992Z,2.22
2022-09-20T10:47:29.007Z,2.22
2022-09-20T10:50:03.364Z,5.82
2022-09-20T10:55:09.674Z,2.60
2022-09-20T10:57:55.665Z,5.07
2022-09-20T11:00:33.513Z,3.40
2022-09-20T11:03:09.482Z,3.63
2022-09-20T11:05:43.039Z,2.67
2022-09-20T11:08:13.529Z,2.33
2022-09-20T11:10:47.054Z,3.08
2022-09-20T11:13:20.319Z,3.08
2022-09-20T11:15:52.887Z,4.75
2022-09-20T11:18:24.267Z,2.53
2022-09-20T11:20:56.114Z,3.95
2022-09-20T11:23:26.353Z,3.92
2022-09-20T11:25:58.015Z,3.65
2022-09-20T11:28:27.710Z,3.88
2022-09-20T11:31:00.412Z,6.10
2022-09-20T11:33:29.556Z,3.55
2022-09-20T11:35:59.208Z,3.72
2022-09-20T11:38:32.110Z,4.15
2022-09-20T11:41:03.787Z,4.05
2022-09-20T11:43:32.940Z,2.75
2022-09-20T11:46:02.761Z,5.03
2022-09-20T11:48:33.510Z,5.45
2022-09-20T11:51:14.298Z,5.45
2022-09-20T11:53:46.798Z,8.30
2022-09-20T11:56:21.847Z,4.95
2022-09-20T11:58:50.779Z,5.28
2022-09-20T12:01:28.289Z,8.43
2022-09-20T12:04:14.155Z,2.13
2022-09-20T12:06:47.123Z,3.15
2022-09-20T12:09:24.332Z,3.33
2022-09-20T12:11:54.160Z,3.08
2022-09-20T12:14:25.175Z,6.93
2022-09-20T12:16:52.977Z,4.00
2022-09-20T12:19:37.150Z,3.83
2022-09-20T12:22:19.173Z,6.50
2022-09-20T12:24:48.762Z,4.95
2022-09-20T12:27:25.163Z,3.45
2022-09-20T12:29:55.186Z,4.38
2022-09-20T12:32:34.303Z,6.60
2022-09-20T12:35:02.179Z,5.40
2022-09-20T12:37:33.140Z,4.18
2022-09-20T12:40:05.062Z,5.40
2022-09-20T12:42:34.566Z,4.22
2022-09-20T12:45:07.342Z,5.07
2022-09-20T12:47:35.904Z,4.80
2022-09-20T12:50:21.767Z,3.90
2022-09-20T12:52:57.091Z,3.78
2022-09-20T12:55:43.998Z,5.65
2022-09-20T12:58:24.612Z,3.33
2022-09-20T13:01:14.560Z,4.57
2022-09-20T13:03:43.137Z,6.70
2022-09-20T13:06:23.891Z,7.85
2022-09-20T13:08:53.779Z,3.30
2022-09-20T13:11:23.561Z,4.32
2022-09-20T13:13:57.621Z,6.72
2022-09-20T13:18:59.073Z,2.75
2022-09-20T13:21:27.460Z,5.15
2022-09-20T13:23:58.555Z,2.33
2022-09-20T13:26:30.451Z,6.65
2022-09-20T13:29:00.339Z,3.28
2022-09-20T13:31:36.311Z,3.00
2022-09-20T13:34:14.406Z,5.70
2022-09-20T13:36:42.898Z,3.95
2022-09-20T13:39:10.782Z,5.28
2022-09-20T13:41:38.432Z,3.10
2022-09-20T13:44:16.919Z,1.80
2022-09-20T13:46:45.673Z,4.30
2022-09-20T13:49:20.937Z,4.25
2022-09-20T13:51:49.313Z,7.20
2022-09-20T13:54:27.618Z,5.00
2022-09-20T13:56:56.801Z,4.80
2022-09-20T13:59:35.081Z,4.60
2022-09-20T14:02:02.813Z,7.20
2022-09-20T14:04:36.889Z,3.05
2022-09-20T14:07:08.408Z,3.88
2022-09-20T14:09:37.348Z,3.63
2022-09-20T14:12:06.265Z,3.10
2022-09-20T14:14:36.395Z,6.10
2022-09-20T14:17:07.405Z,5.05
2022-09-20T14:19:39.327Z,3.63
2022-09-20T14:22:07.434Z,4.00
2022-09-20T14:24:37.293Z,4.68
2022-09-20T14:27:08.342Z,5.32
2022-09-20T14:29:41.259Z,6.50
2022-09-20T14:32:21.152Z,4.32
2022-09-20T14:34:52.792Z,4.30
2022-09-20T14:37:24.726Z,4.68
2022-09-20T14:39:54.529Z,5.07
2022-09-20T14:42:28.667Z,5.75
2022-09-20T14:47:32.461Z,3.67
2022-09-20T14:50:01.885Z,4.28
2022-09-20T14:52:40.940Z,4.65
2022-09-20T14:55:28.269Z,7.68
2022-09-20T14:58:00.020Z,5.82
2022-09-20T15:00:29.740Z,14.38
2022-09-20T15:03:06.617Z,6.68
2022-09-20T15:05:34.330Z,4.40
2022-09-20T15:08:03.334Z,4.63
2022-09-20T15:10:31.394Z,6.10
2022-09-20T15:12:59.098Z,6.82
2022-09-20T15:15:26.774Z,5.80
2022-09-20T15:17:57.583Z,5.20
2022-09-20T15:20:27.016Z,3.60
2022-09-20T15:22:58.207Z,5.63
2022-09-20T15:25:25.879Z,4.80
2022-09-20T15:27:53.574Z,9.45
2022-09-20T15:30:21.398Z,4.35
2022-09-20T15:32:50.229Z,5.38
2022-09-20T15:35:17.917Z,7.47
2022-09-20T15:37:46.943Z,6.40
2022-09-20T15:40:15.398Z,6.75
2022-09-20T15:42:43.436Z,4.97
2022-09-20T15:45:11.896Z,5.05
2022-09-20T15:47:39.962Z,4.65
2022-09-20T15:50:08.635Z,5.68
2022-09-20T15:52:37.460Z,5.68
2022-09-20T15:55:07.471Z,5.03
2022-09-20T15:57:35.377Z,6.15
2022-09-20T16:00:03.214Z,5.10
2022-09-20T16:02:31.165Z,5.80
2022-09-20T16:05:00.503Z,4.75
2022-09-20T16:07:28.482Z,5.95
2022-09-20T16:09:56.922Z,6.95
2022-09-20T16:12:26.122Z,4.85
2022-09-20T16:14:53.759Z,5.95
2022-09-20T16:17:41.781Z,5.75
2022-09-20T16:20:09.525Z,4.70
2022-09-20T16:22:37.361Z,6.90
2022-09-20T16:25:06.030Z,7.22
2022-09-20T16:27:36.521Z,10.05
2022-09-20T16:30:04.267Z,11.82
2022-09-20T16:32:32.028Z,5.22
2022-09-20T16:35:01.641Z,4.93
2022-09-20T16:37:33.145Z,7.70
2022-09-20T16:40:01.041Z,6.00
2022-09-20T16:42:29.507Z,6.82
2022-09-20T16:44:58.543Z,5.82
2022-09-20T16:47:26.474Z,5.80
2022-09-20T16:49:54.841Z,7.50
2022-09-20T16:52:22.737Z,6.82
2022-09-20T16:54:50.506Z,8.13
2022-09-20T16:57:18.593Z,6.20
2022-09-20T16:59:46.668Z,6.28
2022-09-20T17:02:15.861Z,5.40
2022-09-20T17:04:43.894Z,6.25
2022-09-20T17:07:11.640Z,4.72
2022-09-20T17:09:41.632Z,5.45
2022-09-20T17:12:10.059Z,6.22
2022-09-20T17:14:38.250Z,8.32
2022-09-20T17:17:07.592Z,5.78
2022-09-20T17:19:36.612Z,6.47
2022-09-20T17:22:04.343Z,9.40
2022-09-20T17:24:31.992Z,6.15
2022-09-20T17:27:04.355Z,5.75
2022-09-20T17:29:32.120Z,5.68
2022-09-20T17:32:00.414Z,5.35
2022-09-20T17:34:30.629Z,6.15
2022-09-20T17:37:01.813Z,5.45
2022-09-20T17:39:48.039Z,4.95
2022-09-20T17:42:16.141Z,5.88
2022-09-20T17:44:46.141Z,7.38
2022-09-20T17:47:14.216Z,6.15
2022-09-20T17:49:44.246Z,7.15
2022-09-20T17:52:13.374Z,8.07
2022-09-20T17:54:43.030Z,7.43
2022-09-20T17:57:11.162Z,6.90
2022-09-20T17:59:38.880Z,11.50
2022-09-20T18:02:11.613Z,6.40
2022-09-20T18:04:39.729Z,8.60
2022-09-20T18:07:11.680Z,9.73
2022-09-20T18:09:41.197Z,19.10
2022-09-20T18:12:08.888Z,10.20
2022-09-20T18:15:00.599Z,8.95
2022-09-20T18:17:28.565Z,8.90
2022-09-20T18:19:59.862Z,6.22
2022-09-20T18:22:29.153Z,8.38
2022-09-20T18:24:59.895Z,10.15
2022-09-20T18:27:29.038Z,7.07
2022-09-20T18:30:00.101Z,7.53
2022-09-20T18:32:30.619Z,6.30
2022-09-20T18:34:58.304Z,6.78
2022-09-20T18:37:30.760Z,6.55
2022-09-20T18:40:03.481Z,9.30
2022-09-20T18:42:34.813Z,4.88
2022-09-20T18:45:02.493Z,7.15
2022-09-20T18:47:32.874Z,5.45
2022-09-20T18:50:01.749Z,8.95
2022-09-20T18:52:39.898Z,7.35
2022-09-20T18:55:10.996Z,5.95
2022-09-20T18:57:38.930Z,6.78
2022-09-20T19:00:07.995Z,4.13
2022-09-20T19:02:45.264Z,7.90
2022-09-20T19:05:21.326Z,6.47
2022-09-20T19:07:54.793Z,5.40
2022-09-20T19:10:26.870Z,4.20
2022-09-20T19:12:58.586Z,4.40
2022-09-20T19:15:39.513Z,5.55
2022-09-20T19:18:22.916Z,5.00
2022-09-20T19:20:53.559Z,8.18
2022-09-20T19:23:32.399Z,3.15
2022-09-20T19:26:04.383Z,8.55
2022-09-20T19:28:32.319Z,6.15
2022-09-20T19:31:00.820Z,4.30
2022-09-20T19:33:31.828Z,4.90
2022-09-20T19:36:00.223Z,8.27
2022-09-20T19:38:38.300Z,3.30
2022-09-20T19:41:19.836Z,5.38
2022-09-20T19:43:55.464Z,6.57
2022-09-20T19:46:38.024Z,3.70
2022-09-20T19:49:09.169Z,6.75
2022-09-20T19:51:38.769Z,3.97
2022-09-20T19:54:07.309Z,5.78
2022-09-20T19:56:44.809Z,6.10
2022-09-20T19:59:13.437Z,4.68
2022-09-20T20:01:41.619Z,4.50
2022-09-20T20:04:10.187Z,4.55
2022-09-20T20:06:42.847Z,5.13
2022-09-20T20:09:14.193Z,5.75
2022-09-20T20:11:48.863Z,3.35
2022-09-20T20:14:21.422Z,3.08
2022-09-20T20:16:55.460Z,3.80
2022-09-20T20:19:31.280Z,3.22
2022-09-20T20:22:00.835Z,7.03
2022-09-20T20:24:32.912Z,27.35
2022-09-20T20:27:01.892Z,4.85
2022-09-20T20:29:34.934Z,2.58
2022-09-20T20:32:03.523Z,3.22
2022-09-20T20:34:31.299Z,3.53
2022-09-20T20:37:02.796Z,3.53
2022-09-20T20:39:34.048Z,3.25
2022-09-20T20:42:03.696Z,4.38
2022-09-20T20:44:31.485Z,2.50
2022-09-20T20:47:02.805Z,6.13
2022-09-20T20:49:30.539Z,2.28
2022-09-20T20:51:59.731Z,4.05
2022-09-20T20:54:27.344Z,3.17
2022-09-20T20:56:54.969Z,2.25
2022-09-20T20:59:25.951Z,4.55
2022-09-20T21:01:53.877Z,4.50
2022-09-20T21:04:33.516Z,4.07
2022-09-20T21:07:01.965Z,2.90
2022-09-20T21:09:29.638Z,3.35
2022-09-20T21:11:57.872Z,3.22
2022-09-20T21:14:26.903Z,5.05
2022-09-20T21:16:54.483Z,8.43
2022-09-20T21:19:23.047Z,3.42
2022-09-20T21:21:50.703Z,5.97
2022-09-20T21:24:18.335Z,5.43
2022-09-20T21:26:47.009Z,7.10
2022-09-20T21:29:15.816Z,8.10
2022-09-20T21:31:46.898Z,5.03
2022-09-20T21:34:19.113Z,4.82
2022-09-20T21:36:47.921Z,3.55
2022-09-20T21:39:18.217Z,3.78
2022-09-20T21:41:47.178Z,5.93
2022-09-20T21:44:15.064Z,6.38
2022-09-20T21:46:44.881Z,3.85
2022-09-20T21:49:17.046Z,2.92
2022-09-20T21:51:45.318Z,4.80
2022-09-20T21:54:13.076Z,3.33
2022-09-20T21:56:41.499Z,4.35
2022-09-20T21:59:09.534Z,3.78
2022-09-20T22:01:38.026Z,5.03
2022-09-20T22:04:07.761Z,12.50
2022-09-20T22:06:36.440Z,6.28
2022-09-20T22:09:05.485Z,2.67
2022-09-20T22:11:34.189Z,3.67
2022-09-20T22:14:01.849Z,3.47
2022-09-20T22:16:31.058Z,3.20
2022-09-20T22:18:59.857Z,5.13
2022-09-20T22:21:29.540Z,5.63
2022-09-20T22:23:58.073Z,5.53
2022-09-20T22:26:26.940Z,4.00
2022-09-20T22:28:54.535Z,4.70
2022-09-20T22:31:22.923Z,4.00
2022-09-20T22:33:51.526Z,3.92
2022-09-20T22:36:20.362Z,4.90
2022-09-20T22:38:49.885Z,4.35
2022-09-20T22:41:18.442Z,3.22
2022-09-20T22:43:46.356Z,2.60
2022-09-20T22:46:17.059Z,3.38
2022-09-20T22:48:45.601Z,2.47
2022-09-20T22:51:15.327Z,7.18
2022-09-20T22:53:46.778Z,4.45
2022-09-20T22:56:17.206Z,3.95
2022-09-20T22:58:50.617Z,3.60
2022-09-20T23:01:19.898Z,5.73
2022-09-20T23:03:48.580Z,5.35
2022-09-20T23:06:16.819Z,4.10
2022-09-20T23:08:44.851Z,3.13
2022-09-20T23:11:23.312Z,3.80
2022-09-20T23:13:54.378Z,6.13
2022-09-20T23:16:26.514Z,5.65
2022-09-20T23:19:11.457Z,4.75
2022-09-20T23:21:45.085Z,3.80
2022-09-20T23:24:13.804Z,4.28
2022-09-20T23:26:50.863Z,3.47
2022-09-20T23:29:18.528Z,3.33
2022-09-20T23:31:48.241Z,3.70
2022-09-20T23:34:16.594Z,6.60
2022-09-20T23:36:45.100Z,3.42
2022-09-20T23:39:16.047Z,4.18
2022-09-20T23:41:50.111Z,3.35
2022-09-20T23:44:21.074Z,5.28
2022-09-20T23:46:48.783Z,4.03
2022-09-20T23:49:19.701Z,5.75
2022-09-20T23:51:47.394Z,3.78
2022-09-20T23:54:15.746Z,5.78
2022-09-20T23:56:45.033Z,3.40
2022-09-20T23:59:15.503Z,5.20
